Airfield :







YOU CAN JOIN US ON...

 
LOGIN :

Register | Disclaimer

   EN    FR    IT 

 









Legend :    VFR   Marginal VFR   IFR   Intensive IFR   Very Intensive IFR
Visi :
Ceiling :
>= 8 km
>= 3000ft
5 to 8 km
1000 to 3000 ft
1500m to 5 km
500 to 1000 ft
800 to 1500m
200 to 500 ft
< 800m
< 200 ft
Symbols :   Thunderstorms  Fog  Heavy snow  Heavy precipitations  Wind > 20 kt






- Airport Elevation : 76 ft
- IATA code : PWM


KPWM - Portland International Jetport

CURRENT METAR :
  • 110451Z 29008KT 9SM -RA FEW024 OVC030 06/00 A2998 RMK AO2 SLP152 LAST P0000 T00560000 401440056 $

EXPIRED METARs :
  • 110351Z 28010G18KT 240V310 10SM -RA OVC037 07/M01 A2997 RMK AO2 SLP147 P0000 T00671006 $
  • 110251Z 27011KT 10SM -RA BKN065 OVC080 08/01 A2991 RMK AO2 RAB47 SLP129 P0000 60002 T00780006 51041 $
  • 110151Z 26010G17KT 10SM FEW030 BKN065 OVC085 08/01 A2987 RMK AO2 RAE26 SLP115 P0000 T00780011

TAF KPWM
Valid from the 11 at 00:00 until the 12 at 00:00 UTC


102336Z 1100/1124 26006KT P6SM -SHRA SCT035 OVC080
FM110500 30006KT P6SM -SHSN OVC030
FM111100 33006KT P6SM BKN050



MET'MAP, your aeronautical weather chart ! - Copyright ORBIFLY December 2007 - Disclaimer

ORBIFLY MET'MAP TEAM :

Programming & Development : Alexandra Zaïnal
Concept & original design : Baudouin d'Aumeries
Assistance for programming : Marc-Olivier Méhu
Technical & hardware support : Manuel Goepfert

Contact : metmap@orbifly.com




SOURCES & CREDITS :

   NOAA